Time;durP1;ratioP1;P1;durP2;ratioP2;P2;SDS_P1;SDS_P2;PMS_P1;PMS_P2;Temp;Humidity;BMP_temperature;BMP_pressure;BME280_temperature;BME280_humidity;BME280_pressure;Samples;Min_cycle;Max_cycle;Signal;HPM_P1;HPM_P2
2023/02/20 00:01:28;;;;;;;46.72;36.80;;;5.60;99.90;;;;;;4986828;28;20619;-67
2023/02/20 00:03:56;;;;;;;49.60;36.25;;;5.60;99.90;;;;;;4988265;28;20304;-67
2023/02/20 00:06:23;;;;;;;45.35;35.80;;;5.60;99.90;;;;;;4986848;28;20207;-67
2023/02/20 00:08:50;;;;;;;46.55;35.50;;;5.50;99.90;;;;;;4983382;28;20769;-67
2023/02/20 00:11:18;;;;;;;44.15;34.85;;;5.50;99.90;;;;;;4987747;28;20293;-66
2023/02/20 00:13:46;;;;;;;49.30;37.05;;;5.50;99.90;;;;;;4986508;28;20312;-66
2023/02/20 00:16:13;;;;;;;46.85;36.35;;;5.40;99.90;;;;;;4984333;28;20547;-66
2023/02/20 00:18:41;;;;;;;45.65;36.55;;;5.50;99.90;;;;;;4987842;28;20316;-67
2023/02/20 00:21:09;;;;;;;47.65;36.72;;;5.50;99.90;;;;;;4981789;28;20773;-70
2023/02/20 00:23:36;;;;;;;47.28;35.80;;;5.50;99.90;;;;;;4985004;28;20227;-66
2023/02/20 00:26:03;;;;;;;48.42;37.45;;;5.40;99.90;;;;;;4988329;28;20292;-66
2023/02/20 00:28:32;;;;;;;49.42;36.55;;;5.40;99.90;;;;;;4987556;28;20271;-67
2023/02/20 00:30:58;;;;;;;49.25;36.33;;;5.40;99.90;;;;;;4985152;28;20280;-66
2023/02/20 00:33:26;;;;;;;54.97;37.97;;;5.50;99.90;;;;;;4987911;28;20303;-66
2023/02/20 00:35:54;;;;;;;48.60;37.17;;;5.50;99.90;;;;;;4989391;28;20634;-65
2023/02/20 00:38:21;;;;;;;50.20;37.55;;;5.40;99.90;;;;;;4987754;28;20317;-66
2023/02/20 00:40:48;;;;;;;47.03;36.25;;;5.50;99.90;;;;;;4987645;28;20279;-65
2023/02/20 00:43:15;;;;;;;50.08;37.47;;;5.50;99.90;;;;;;4988344;28;20841;-66
2023/02/20 00:45:42;;;;;;;50.25;37.83;;;5.50;99.90;;;;;;4987250;28;20296;-66
2023/02/20 00:48:09;;;;;;;50.30;36.78;;;5.40;99.90;;;;;;4987458;28;20360;-66
2023/02/20 00:50:36;;;;;;;52.75;38.92;;;5.30;99.90;;;;;;4987140;28;21017;-66
2023/02/20 00:53:04;;;;;;;53.20;38.38;;;5.20;99.90;;;;;;4987909;28;20284;-66
2023/02/20 00:55:31;;;;;;;53.70;40.60;;;5.10;99.90;;;;;;4986110;28;20300;-66
2023/02/20 00:57:58;;;;;;;49.03;37.80;;;5.10;99.90;;;;;;4989036;28;20228;-67
2023/02/20 01:00:28;;;;;;;49.15;37.40;;;5.20;99.90;;;;;;4987541;28;20807;-66
2023/02/20 01:02:55;;;;;;;50.70;38.17;;;5.20;99.90;;;;;;4986732;28;20232;-66
2023/02/20 01:05:23;;;;;;;59.63;43.95;;;5.30;99.90;;;;;;4987461;28;20281;-66
2023/02/20 01:07:50;;;;;;;54.22;40.30;;;5.30;99.90;;;;;;4989110;28;20276;-68
2023/02/20 01:10:18;;;;;;;49.20;39.00;;;5.30;99.90;;;;;;4987695;28;20884;-66
2023/02/20 01:12:45;;;;;;;53.20;39.10;;;5.30;99.90;;;;;;4986985;28;20255;-66
2023/02/20 01:15:15;;;;;;;57.67;42.28;;;5.30;99.90;;;;;;4986272;28;20308;-66
2023/02/20 01:17:42;;;;;;;53.78;38.50;;;5.20;99.90;;;;;;4987840;28;20287;-65
2023/02/20 01:20:10;;;;;;;51.33;38.38;;;5.20;99.90;;;;;;4986539;28;20311;-65
2023/02/20 01:22:37;;;;;;;53.65;38.75;;;5.10;99.90;;;;;;4986871;28;20284;-65
2023/02/20 01:25:05;;;;;;;50.55;37.40;;;5.10;99.90;;;;;;4986613;28;20311;-65
2023/02/20 01:27:33;;;;;;;50.08;37.97;;;5.00;99.90;;;;;;4987727;28;20287;-65
2023/02/20 01:30:00;;;;;;;51.22;37.28;;;5.00;99.90;;;;;;4986999;28;20331;-65
2023/02/20 01:32:28;;;;;;;46.22;35.72;;;5.00;99.90;;;;;;4987238;28;20301;-65
2023/02/20 01:34:55;;;;;;;49.25;37.17;;;5.00;99.90;;;;;;4988008;28;20299;-65
2023/02/20 01:37:22;;;;;;;46.45;34.33;;;5.00;99.90;;;;;;4986948;28;20755;-64
2023/02/20 01:39:49;;;;;;;48.63;35.47;;;5.00;99.90;;;;;;4985840;28;20319;-65
2023/02/20 01:42:21;;;;;;;43.67;35.20;;;5.00;99.90;;;;;;4995567;28;20197;-67
2023/02/20 01:44:50;;;;;;;50.65;38.60;;;5.00;99.90;;;;;;4987754;28;20216;-65
2023/02/20 01:47:19;;;;;;;50.55;39.63;;;5.00;99.90;;;;;;4987068;28;20296;-66
2023/02/20 01:49:50;;;;;;;48.17;35.35;;;5.10;99.90;;;;;;4985251;28;20343;-66
2023/02/20 01:52:21;;;;;;;50.35;37.40;;;5.10;99.90;;;;;;4985616;28;20288;-67
2023/02/20 01:54:52;;;;;;;55.10;41.20;;;5.10;99.90;;;;;;4987250;28;20248;-65
2023/02/20 01:57:24;;;;;;;50.65;38.15;;;5.10;99.90;;;;;;4987679;28;21788;-63
2023/02/20 01:59:56;;;;;;;48.28;36.90;;;5.00;99.90;;;;;;4987126;28;20244;-65
2023/02/20 02:02:24;;;;;;;51.33;38.42;;;5.00;99.90;;;;;;4989703;28;20280;-65
2023/02/20 02:04:51;;;;;;;50.92;37.38;;;5.00;99.90;;;;;;4986434;28;20316;-65
2023/02/20 02:07:18;;;;;;;47.50;36.10;;;4.90;99.90;;;;;;4988606;28;20328;-65
2023/02/20 02:09:52;;;;;;;47.75;36.50;;;4.90;99.90;;;;;;4990858;28;20335;-64
2023/02/20 02:12:19;;;;;;;47.17;36.33;;;4.90;99.90;;;;;;4987901;28;20775;-65
2023/02/20 02:14:46;;;;;;;49.08;36.72;;;4.90;99.90;;;;;;4986126;28;20233;-64
2023/02/20 02:17:44;;;;;;;54.58;39.08;;;4.90;99.90;;;;;;4991917;28;20284;-65
2023/02/20 02:20:41;;;;;;;56.00;39.88;;;4.90;99.90;;;;;;4986066;28;20217;-65
2023/02/20 02:23:52;;;;;;;47.75;35.72;;;4.90;99.90;;;;;;4989003;28;20639;-64
2023/02/20 02:26:46;;;;;;;46.40;35.03;;;4.90;99.90;;;;;;4986738;28;20967;-65
2023/02/20 02:29:45;;;;;;;49.05;37.10;;;4.80;99.90;;;;;;4987280;28;20224;-64
2023/02/20 02:32:56;;;;;;;50.30;37.63;;;4.80;99.90;;;;;;4986501;28;20970;-64
2023/02/20 02:35:41;;;;;;;51.92;38.75;;;4.80;99.90;;;;;;4985524;28;20307;-65
2023/02/20 02:38:17;;;;;;;49.90;36.83;;;4.80;99.90;;;;;;4992305;28;20248;-65
2023/02/20 02:40:54;;;;;;;48.53;36.33;;;4.70;99.90;;;;;;4988647;28;20204;-65
2023/02/20 02:43:28;;;;;;;53.22;37.22;;;4.60;99.90;;;;;;4986082;28;20236;-65
2023/02/20 02:45:59;;;;;;;48.47;37.33;;;4.60;99.90;;;;;;4986113;28;21834;-65
2023/02/20 02:48:32;;;;;;;46.88;35.08;;;4.60;99.90;;;;;;4987002;28;20240;-68
2023/02/20 02:51:07;;;;;;;48.65;36.22;;;4.60;99.90;;;;;;4991830;28;20689;-67
2023/02/20 02:53:36;;;;;;;48.33;36.55;;;4.60;99.90;;;;;;4985071;28;20298;-69
2023/02/20 02:56:20;;;;;;;44.13;34.55;;;4.60;99.90;;;;;;4988003;28;20292;-67
2023/02/20 02:58:47;;;;;;;47.20;36.17;;;4.60;99.90;;;;;;4988486;28;20217;-66
2023/02/20 03:01:17;;;;;;;43.10;34.72;;;4.70;99.90;;;;;;4986595;28;20201;-65
2023/02/20 03:03:46;;;;;;;43.47;33.92;;;4.70;99.90;;;;;;4986653;28;20212;-66
2023/02/20 03:06:16;;;;;;;48.45;35.45;;;4.70;99.90;;;;;;4991832;28;20287;-68
2023/02/20 03:08:48;;;;;;;49.70;36.50;;;4.70;99.90;;;;;;4991649;28;20248;-67
2023/02/20 03:11:18;;;;;;;50.13;36.95;;;4.70;99.90;;;;;;4988771;28;20189;-66
2023/02/20 03:16:44;;;;;;;46.05;34.28;;;4.80;99.90;;;;;;4990386;28;20234;-66
2023/02/20 03:19:18;;;;;;;46.05;35.47;;;4.80;99.90;;;;;;4993039;28;20307;-66
2023/02/20 03:21:48;;;;;;;46.75;34.20;;;4.80;99.90;;;;;;4988709;28;20252;-66
2023/02/20 03:24:20;;;;;;;48.20;35.08;;;4.80;99.90;;;;;;4991247;28;20311;-66
2023/02/20 03:26:48;;;;;;;52.67;39.03;;;4.80;99.90;;;;;;4990381;28;20316;-66
2023/02/20 03:29:23;;;;;;;53.47;38.67;;;4.80;99.90;;;;;;4987569;28;20794;-66
2023/02/20 03:43:24;;;;;;;47.78;36.58;;;4.80;99.90;;;;;;4988308;28;20203;-64
2023/02/20 03:45:52;;;;;;;62.47;43.13;;;4.80;99.90;;;;;;4987625;28;20240;-64
2023/02/20 03:48:24;;;;;;;51.00;38.30;;;4.80;99.90;;;;;;4989975;28;20312;-65
2023/02/20 03:50:52;;;;;;;50.67;37.67;;;4.80;99.90;;;;;;4985891;28;20731;-65
2023/02/20 03:53:19;;;;;;;46.65;35.50;;;4.80;99.90;;;;;;4987839;28;20934;-65
2023/02/20 03:55:49;;;;;;;46.78;34.55;;;4.70;99.90;;;;;;4992025;28;20288;-66
2023/02/20 03:58:22;;;;;;;45.90;34.83;;;4.70;99.90;;;;;;4988715;28;20308;-66
2023/02/20 04:00:52;;;;;;;45.92;34.40;;;4.70;99.90;;;;;;4990261;28;20201;-65
2023/02/20 04:03:22;;;;;;;43.30;34.28;;;4.70;99.90;;;;;;4988328;28;20335;-66
2023/02/20 04:05:51;;;;;;;47.80;35.30;;;4.70;99.90;;;;;;4987769;28;20228;-67
2023/02/20 04:08:22;;;;;;;48.97;36.53;;;4.70;99.90;;;;;;4990442;28;20229;-67
2023/02/20 04:10:56;;;;;;;49.15;36.10;;;4.70;99.90;;;;;;4989144;28;20291;-66
2023/02/20 04:13:25;;;;;;;52.08;37.22;;;4.70;99.90;;;;;;4987972;28;20304;-67
2023/02/20 04:15:54;;;;;;;53.53;39.25;;;4.70;99.90;;;;;;4995375;28;20200;-67
2023/02/20 04:18:22;;;;;;;54.90;38.42;;;4.70;99.90;;;;;;4990916;28;20638;-67
2023/02/20 04:20:53;;;;;;;51.63;39.05;;;4.70;99.90;;;;;;4989180;28;20965;-66
2023/02/20 04:23:22;;;;;;;53.67;39.00;;;4.60;99.90;;;;;;4988476;28;20315;-67
2023/02/20 04:25:55;;;;;;;52.83;38.70;;;4.60;99.90;;;;;;4991143;28;20308;-68
2023/02/20 04:28:24;;;;;;;50.75;36.40;;;4.60;99.90;;;;;;4990609;28;20248;-65
2023/02/20 04:30:52;;;;;;;49.08;37.42;;;4.60;99.90;;;;;;4991441;28;20315;-66
2023/02/20 04:33:20;;;;;;;50.67;38.35;;;4.60;99.90;;;;;;4988858;28;20282;-67
2023/02/20 04:35:47;;;;;;;48.45;35.55;;;4.60;99.90;;;;;;4990624;28;20285;-67
2023/02/20 04:38:14;;;;;;;51.17;37.22;;;4.60;99.90;;;;;;4988071;28;20304;-65
2023/02/20 04:40:41;;;;;;;45.60;36.17;;;4.60;99.90;;;;;;4992580;28;20292;-66
2023/02/20 04:43:09;;;;;;;50.03;36.63;;;4.60;99.90;;;;;;4990554;28;20323;-65
2023/02/20 04:45:36;;;;;;;51.95;36.67;;;4.60;99.90;;;;;;4989749;28;20260;-66
2023/02/20 04:48:03;;;;;;;50.00;35.03;;;4.60;99.90;;;;;;4987564;28;20641;-67
2023/02/20 04:50:33;;;;;;;46.20;34.75;;;4.60;99.90;;;;;;4989452;28;20271;-66
2023/02/20 04:53:00;;;;;;;45.00;34.08;;;4.60;99.90;;;;;;4988732;28;20211;-66
2023/02/20 04:55:28;;;;;;;47.97;35.05;;;4.60;99.90;;;;;;4988749;28;20293;-65
2023/02/20 04:57:57;;;;;;;47.83;35.53;;;4.60;99.90;;;;;;4990638;28;20287;-65
2023/02/20 05:00:27;;;;;;;51.33;37.47;;;4.50;99.90;;;;;;4991221;28;20741;-64
2023/02/20 05:02:54;;;;;;;53.38;39.05;;;4.60;99.90;;;;;;4990496;28;20232;-64
2023/02/20 05:05:23;;;;;;;47.88;34.55;;;4.50;99.90;;;;;;4989410;28;20312;-65
2023/02/20 05:07:53;;;;;;;47.50;35.38;;;4.50;99.90;;;;;;4988923;28;20292;-68
2023/02/20 05:10:22;;;;;;;47.85;34.50;;;4.50;99.90;;;;;;4989830;28;20296;-65
2023/02/20 05:12:50;;;;;;;49.63;37.25;;;4.50;99.90;;;;;;4988416;28;20291;-64
2023/02/20 05:15:18;;;;;;;52.75;37.10;;;4.50;99.90;;;;;;4986880;28;20296;-65
2023/02/20 05:17:47;;;;;;;45.92;34.60;;;4.50;99.90;;;;;;4990156;28;20280;-65
2023/02/20 05:20:15;;;;;;;54.08;37.97;;;4.50;99.90;;;;;;4990605;28;20682;-65
2023/02/20 05:22:41;;;;;;;48.80;36.60;;;4.40;99.90;;;;;;4990589;28;20284;-65
2023/02/20 05:25:08;;;;;;;53.22;38.50;;;4.40;99.90;;;;;;4989545;28;20896;-66
2023/02/20 05:27:36;;;;;;;46.80;36.67;;;4.40;99.90;;;;;;4992394;28;20634;-65
2023/02/20 05:30:04;;;;;;;50.28;36.85;;;4.30;99.90;;;;;;4988766;28;20300;-66
2023/02/20 05:32:31;;;;;;;50.25;38.03;;;4.40;99.90;;;;;;4988778;28;20288;-65
2023/02/20 05:34:59;;;;;;;49.40;36.67;;;4.40;99.90;;;;;;4989732;28;20781;-65
2023/02/20 05:37:28;;;;;;;56.63;40.90;;;4.40;99.90;;;;;;4990970;28;20228;-65
2023/02/20 05:39:55;;;;;;;50.60;36.88;;;4.30;99.90;;;;;;4987914;28;20323;-65
2023/02/20 05:42:22;;;;;;;56.58;40.03;;;4.30;99.90;;;;;;4988995;28;20279;-65
2023/02/20 05:44:50;;;;;;;55.05;39.85;;;4.30;99.90;;;;;;4987590;28;20245;-64
2023/02/20 05:47:17;;;;;;;52.63;38.03;;;4.30;99.90;;;;;;4988715;28;20228;-65
2023/02/20 05:49:44;;;;;;;49.35;36.40;;;4.30;99.90;;;;;;4985368;28;20315;-64
2023/02/20 05:52:13;;;;;;;51.58;36.40;;;4.30;99.90;;;;;;4988212;28;20321;-66
2023/02/20 05:54:41;;;;;;;47.95;35.55;;;4.20;99.90;;;;;;4987500;28;20240;-65
2023/02/20 05:57:08;;;;;;;53.53;37.10;;;4.30;99.90;;;;;;4986428;28;20701;-65
2023/02/20 05:59:35;;;;;;;50.53;38.50;;;4.30;99.90;;;;;;4987380;28;20304;-65
2023/02/20 06:02:02;;;;;;;52.83;39.10;;;4.30;99.90;;;;;;4987497;28;20295;-65
2023/02/20 06:04:30;;;;;;;49.08;36.67;;;4.30;99.90;;;;;;4988740;28;20303;-64
2023/02/20 06:06:57;;;;;;;49.53;36.40;;;4.20;99.90;;;;;;4992273;28;20239;-65
2023/02/20 06:09:25;;;;;;;54.40;38.50;;;4.20;99.90;;;;;;4988232;28;20733;-65
2023/02/20 06:11:54;;;;;;;48.92;35.70;;;4.20;99.90;;;;;;4985818;28;20292;-64
2023/02/20 06:14:23;;;;;;;51.85;37.38;;;4.20;99.90;;;;;;4988739;28;20266;-66
2023/02/20 06:16:51;;;;;;;48.53;36.85;;;4.20;99.90;;;;;;4988870;28;20203;-64
2023/02/20 06:19:21;;;;;;;51.97;37.22;;;4.20;99.90;;;;;;4982678;28;20249;-65
2023/02/20 06:21:48;;;;;;;57.03;40.92;;;4.20;99.90;;;;;;4992641;28;20205;-65
2023/02/20 06:24:15;;;;;;;57.88;41.20;;;4.20;99.90;;;;;;4984926;28;20657;-65
2023/02/20 06:26:45;;;;;;;54.50;40.67;;;4.20;99.90;;;;;;4985004;28;20251;-65
2023/02/20 06:29:14;;;;;;;58.90;41.92;;;4.20;99.90;;;;;;4983280;28;20258;-65
2023/02/20 06:31:41;;;;;;;50.47;37.75;;;4.10;99.90;;;;;;4982783;28;20228;-65
2023/02/20 06:34:09;;;;;;;52.95;40.17;;;4.10;99.90;;;;;;4981655;28;20311;-64
2023/02/20 06:36:37;;;;;;;55.33;39.13;;;4.10;99.90;;;;;;4986358;28;20288;-65
2023/02/20 06:39:06;;;;;;;55.80;39.45;;;4.10;99.90;;;;;;4981204;28;20982;-66
2023/02/20 06:41:33;;;;;;;49.33;36.85;;;4.20;99.90;;;;;;4988654;28;20259;-65
2023/02/20 06:44:02;;;;;;;51.63;37.67;;;4.20;99.90;;;;;;4984187;28;20299;-66
2023/02/20 06:46:29;;;;;;;50.15;38.00;;;4.20;99.90;;;;;;4987119;28;20316;-65
2023/02/20 06:48:58;;;;;;;51.97;37.85;;;4.20;99.90;;;;;;4984244;28;20792;-65
2023/02/20 06:51:28;;;;;;;51.67;38.97;;;4.30;99.90;;;;;;4984282;28;20288;-65
2023/02/20 06:53:55;;;;;;;49.03;36.75;;;4.30;99.90;;;;;;4980697;28;20312;-66
2023/02/20 06:56:24;;;;;;;51.50;36.90;;;4.30;99.90;;;;;;4983243;28;20289;-65
2023/02/20 06:58:53;;;;;;;49.17;37.05;;;4.40;99.90;;;;;;4980626;28;20263;-66
2023/02/20 07:01:25;;;;;;;50.85;39.92;;;4.40;99.90;;;;;;4981871;28;20285;-65
2023/02/20 07:03:54;;;;;;;54.42;40.60;;;4.50;99.90;;;;;;4980839;28;20235;-67
2023/02/20 07:06:22;;;;;;;50.55;37.05;;;4.60;99.90;;;;;;4981978;28;20225;-66
2023/02/20 07:08:49;;;;;;;50.95;38.17;;;4.60;99.90;;;;;;4978154;28;20309;-66
2023/02/20 07:11:18;;;;;;;53.92;39.08;;;4.70;99.90;;;;;;4982051;28;20201;-67
2023/02/20 07:13:45;;;;;;;48.47;36.58;;;4.80;99.90;;;;;;4980180;28;20347;-66
2023/02/20 07:16:12;;;;;;;50.72;37.95;;;4.80;99.90;;;;;;4981753;28;20288;-66
2023/02/20 07:18:41;;;;;;;48.38;34.70;;;4.90;99.90;;;;;;4986095;28;20315;-65
2023/02/20 07:21:08;;;;;;;58.97;39.95;;;5.00;99.90;;;;;;4987271;28;20280;-64
2023/02/20 07:23:35;;;;;;;46.85;36.35;;;5.20;99.90;;;;;;4982160;28;20312;-66
2023/02/20 07:26:02;;;;;;;54.38;39.20;;;5.30;99.90;;;;;;4980492;28;20304;-66
2023/02/20 07:28:29;;;;;;;58.20;40.88;;;5.40;99.90;;;;;;4980483;28;20225;-66
2023/02/20 07:30:56;;;;;;;57.30;40.33;;;5.70;99.90;;;;;;4984206;28;20288;-67
2023/02/20 07:33:23;;;;;;;56.38;42.17;;;5.90;99.90;;;;;;4965433;28;20228;-65
2023/02/20 07:35:52;;;;;;;54.00;41.15;;;6.20;99.90;;;;;;4979348;28;20331;-66
2023/02/20 07:38:19;;;;;;;58.92;43.67;;;6.60;99.90;;;;;;4979415;28;20706;-64
2023/02/20 07:40:46;;;;;;;58.15;43.25;;;7.00;99.90;;;;;;4981015;28;20228;-66
2023/02/20 07:43:13;;;;;;;59.97;46.28;;;7.50;99.90;;;;;;4985075;28;20309;-65
2023/02/20 07:45:41;;;;;;;63.63;48.97;;;8.00;99.90;;;;;;4983683;28;20316;-65
2023/02/20 07:48:08;;;;;;;60.38;45.83;;;8.40;99.90;;;;;;4982533;28;20228;-66
2023/02/20 07:50:35;;;;;;;65.20;48.67;;;8.70;99.90;;;;;;4982030;28;20316;-65
2023/02/20 07:53:04;;;;;;;61.25;46.15;;;9.00;99.90;;;;;;4981312;28;20287;-66
2023/02/20 07:55:31;;;;;;;57.30;45.67;;;9.30;99.90;;;;;;4983700;28;20209;-66
2023/02/20 07:57:58;;;;;;;59.83;45.75;;;9.40;99.90;;;;;;4985518;28;20292;-66
2023/02/20 08:00:26;;;;;;;64.75;48.05;;;9.40;99.90;;;;;;4986482;28;20312;-66
2023/02/20 08:02:53;;;;;;;66.55;47.75;;;9.50;99.90;;;;;;4986729;28;20247;-66
2023/02/20 08:05:20;;;;;;;63.90;48.05;;;9.50;99.90;;;;;;4986501;28;20229;-65
2023/02/20 08:07:48;;;;;;;62.75;48.10;;;9.30;99.90;;;;;;4987506;28;20301;-66
2023/02/20 08:10:18;;;;;;;65.78;47.28;;;9.00;99.90;;;;;;4985816;28;20304;-66
2023/02/20 08:12:46;;;;;;;61.53;45.63;;;8.60;99.90;;;;;;4987634;28;20256;-66
2023/02/20 08:15:13;;;;;;;58.47;45.10;;;8.40;99.90;;;;;;4989558;28;20304;-66
2023/02/20 08:17:41;;;;;;;59.10;44.42;;;8.20;99.90;;;;;;4989533;28;20308;-66
2023/02/20 08:20:09;;;;;;;56.97;43.65;;;8.10;99.90;;;;;;4986428;28;20278;-66
2023/02/20 08:22:36;;;;;;;59.70;45.17;;;8.10;99.90;;;;;;4983858;28;20291;-66
2023/02/20 08:25:04;;;;;;;59.35;44.22;;;8.20;99.90;;;;;;4986690;28;20303;-67
2023/02/20 08:27:37;;;;;;;57.00;43.20;;;8.40;99.90;;;;;;4985410;28;20229;-66
2023/02/20 08:30:04;;;;;;;57.20;44.20;;;8.80;99.90;;;;;;4981287;28;20331;-65
2023/02/20 08:32:32;;;;;;;60.42;46.38;;;9.20;99.90;;;;;;4987040;28;20283;-65
2023/02/20 08:34:59;;;;;;;63.90;47.60;;;9.30;99.90;;;;;;4983293;28;20286;-65
2023/02/20 08:37:26;;;;;;;62.33;48.20;;;9.10;99.90;;;;;;4985248;28;20283;-66
2023/02/20 08:39:52;;;;;;;73.38;52.92;;;9.40;99.90;;;;;;4986381;28;20315;-65
2023/02/20 08:42:19;;;;;;;72.07;54.15;;;10.10;99.90;;;;;;4984439;28;20229;-66
2023/02/20 08:44:48;;;;;;;59.53;47.10;;;10.70;99.90;;;;;;4985426;28;20304;-67
2023/02/20 08:47:18;;;;;;;54.85;44.83;;;11.00;99.90;;;;;;4985368;28;20312;-67
2023/02/20 08:49:47;;;;;;;58.28;44.72;;;11.40;99.90;;;;;;4984688;28;20220;-67
2023/02/20 08:52:14;;;;;;;56.22;44.00;;;11.90;99.90;;;;;;4985687;28;20409;-65
2023/02/20 08:54:44;;;;;;;59.45;46.22;;;12.50;99.90;;;;;;4983502;28;20359;-67
2023/02/20 08:57:11;;;;;;;56.38;44.28;;;13.00;99.90;;;;;;4984339;28;20385;-67
2023/02/20 08:59:38;;;;;;;54.53;43.40;;;13.50;99.90;;;;;;4986174;28;20332;-67
2023/02/20 09:02:08;;;;;;;56.67;44.65;;;13.70;99.90;;;;;;4982945;28;20209;-67
2023/02/20 09:04:35;;;;;;;54.53;43.50;;;13.90;99.90;;;;;;4986819;28;20224;-67
2023/02/20 09:07:02;;;;;;;55.20;42.53;;;14.30;99.90;;;;;;4990322;28;20300;-68
2023/02/20 09:09:29;;;;;;;52.45;43.03;;;14.10;99.90;;;;;;4984678;28;20303;-67
2023/02/20 09:11:57;;;;;;;52.60;41.42;;;13.30;99.90;;;;;;4986192;28;20197;-67
2023/02/20 09:14:24;;;;;;;50.38;40.15;;;12.60;99.90;;;;;;4984043;28;20674;-69
2023/02/20 09:16:52;;;;;;;49.97;40.65;;;12.10;99.90;;;;;;4985925;28;20199;-67
2023/02/20 09:19:22;;;;;;;43.90;35.78;;;11.70;99.90;;;;;;4982903;28;20853;-69
2023/02/20 09:21:50;;;;;;;47.10;37.38;;;11.40;99.90;;;;;;4983434;28;20763;-69
2023/02/20 09:24:17;;;;;;;51.55;38.95;;;11.10;99.90;;;;;;4983397;28;20232;-69
2023/02/20 09:26:44;;;;;;;46.10;36.92;;;10.80;99.90;;;;;;4986179;28;20466;-69
2023/02/20 09:29:11;;;;;;;48.00;37.42;;;10.60;99.90;;;;;;4983836;28;20770;-68
2023/02/20 09:31:38;;;;;;;47.65;36.95;;;10.40;99.90;;;;;;4985097;28;20289;-69
2023/02/20 09:34:05;;;;;;;45.83;37.30;;;10.20;99.90;;;;;;4988494;28;20327;-69
2023/02/20 09:36:33;;;;;;;44.03;35.80;;;9.80;99.90;;;;;;4987627;28;20664;-69
2023/02/20 09:39:01;;;;;;;45.33;36.47;;;9.60;99.90;;;;;;4983561;28;21041;-68
2023/02/20 09:41:46;;;;;;;47.97;38.55;;;9.30;99.90;;;;;;4980059;28;20231;-68
2023/02/20 09:44:18;;;;;;;51.08;40.47;;;9.00;99.90;;;;;;4996012;28;20224;-66
2023/02/20 09:46:48;;;;;;;51.75;40.45;;;8.80;99.90;;;;;;4984387;28;20613;-67
2023/02/20 09:49:19;;;;;;;56.75;43.50;;;8.80;99.90;;;;;;4982407;28;20225;-67
2023/02/20 09:51:53;;;;;;;52.42;41.47;;;8.80;99.90;;;;;;4983746;28;20284;-67
2023/02/20 09:54:27;;;;;;;54.78;43.33;;;8.90;99.90;;;;;;4983609;28;20306;-67
2023/02/20 09:56:59;;;;;;;56.78;41.95;;;9.20;99.90;;;;;;4992177;28;20200;-67
2023/02/20 09:59:32;;;;;;;56.97;43.15;;;9.50;99.90;;;;;;4984340;28;20303;-68
2023/02/20 10:02:02;;;;;;;52.00;40.30;;;9.70;99.90;;;;;;4968139;28;20209;-68
2023/02/20 10:04:33;;;;;;;48.75;40.17;;;9.70;99.90;;;;;;4989976;28;20241;-67
2023/02/20 10:07:13;;;;;;;49.78;40.30;;;10.00;99.90;;;;;;4982843;28;20316;-68
2023/02/20 10:09:40;;;;;;;52.03;39.17;;;10.00;99.90;;;;;;4983594;28;20248;-67
2023/02/20 10:12:15;;;;;;;50.85;40.00;;;9.90;99.90;;;;;;4981068;28;20287;-68
2023/02/20 10:14:55;;;;;;;52.05;41.67;;;9.70;99.90;;;;;;4985644;28;20248;-67
2023/02/20 10:17:34;;;;;;;54.47;42.50;;;9.50;99.90;;;;;;4981281;28;20288;-67
2023/02/20 10:20:07;;;;;;;53.67;40.25;;;9.20;99.90;;;;;;4980877;28;20295;-67
2023/02/20 10:22:43;;;;;;;48.92;38.55;;;9.10;99.90;;;;;;4982987;28;20697;-68
2023/02/20 10:25:17;;;;;;;54.35;42.08;;;9.00;99.90;;;;;;4983602;28;20303;-67
2023/02/20 10:27:54;;;;;;;49.90;38.92;;;8.80;99.90;;;;;;4980659;28;20298;-69
2023/02/20 10:30:27;;;;;;;50.85;39.15;;;8.80;99.90;;;;;;4987033;28;20217;-68
2023/02/20 10:33:01;;;;;;;51.50;40.08;;;8.90;99.90;;;;;;4989752;28;20877;-69
2023/02/20 10:35:36;;;;;;;53.67;39.70;;;8.80;99.90;;;;;;4981189;28;20205;-69
2023/02/20 10:38:09;;;;;;;47.80;36.97;;;8.70;99.90;;;;;;4984612;28;20212;-68
2023/02/20 10:40:40;;;;;;;49.20;38.50;;;8.50;99.90;;;;;;4981354;28;20301;-66
2023/02/20 10:43:16;;;;;;;58.58;45.38;;;8.40;99.90;;;;;;4981832;28;20750;-67
2023/02/20 10:45:51;;;;;;;66.53;49.67;;;8.20;99.90;;;;;;4984368;28;20227;-69
2023/02/20 10:48:18;;;;;;;61.85;47.00;;;8.10;99.90;;;;;;4984012;28;20315;-68
2023/02/20 10:50:50;;;;;;;64.93;49.55;;;8.00;99.90;;;;;;4986942;28;20280;-67
2023/02/20 10:53:26;;;;;;;59.95;43.75;;;8.00;99.90;;;;;;4984609;28;20679;-68
2023/02/20 10:56:00;;;;;;;60.45;46.28;;;8.00;99.90;;;;;;4982703;28;20193;-68
2023/02/20 10:58:32;;;;;;;61.20;45.10;;;8.10;99.90;;;;;;4984138;28;20295;-68
2023/02/20 11:01:02;;;;;;;55.38;42.00;;;8.20;99.90;;;;;;4982564;28;20279;-68
2023/02/20 11:03:36;;;;;;;53.60;40.83;;;8.50;99.90;;;;;;4984154;28;20300;-68
2023/02/20 11:06:06;;;;;;;59.13;45.20;;;8.80;99.90;;;;;;4985244;28;20197;-70
2023/02/20 11:08:35;;;;;;;64.28;47.92;;;9.00;99.90;;;;;;4981339;28;21265;-69
2023/02/20 11:11:19;;;;;;;61.50;45.15;;;9.00;99.90;;;;;;4982650;28;20682;-69
2023/02/20 11:13:46;;;;;;;61.35;45.35;;;8.80;99.90;;;;;;4982611;28;20308;-70
2023/02/20 11:16:24;;;;;;;55.83;42.28;;;8.60;99.90;;;;;;4983156;28;20291;-69
2023/02/20 11:19:01;;;;;;;61.15;44.90;;;8.50;99.90;;;;;;4980393;28;20344;-69
2023/02/20 11:21:38;;;;;;;63.60;47.30;;;8.50;99.90;;;;;;4983699;28;20497;-70
2023/02/20 11:24:26;;;;;;;61.33;46.55;;;8.50;99.90;;;;;;4984511;28;20236;-69
2023/02/20 11:27:02;;;;;;;61.15;43.88;;;8.40;99.90;;;;;;4983711;28;20213;-70
2023/02/20 11:29:38;;;;;;;58.38;43.72;;;8.50;99.90;;;;;;4988195;28;20289;-69
2023/02/20 11:32:33;;;;;;;56.40;44.13;;;8.60;99.90;;;;;;4986497;28;20291;-69
2023/02/20 11:35:14;;;;;;;57.25;43.88;;;8.80;99.90;;;;;;4984895;28;20319;-70
2023/02/20 11:37:42;;;;;;;51.92;40.97;;;9.00;99.90;;;;;;4988063;28;20776;-70
2023/02/20 11:40:18;;;;;;;54.28;42.58;;;9.20;99.90;;;;;;4984881;28;20348;-70
2023/02/20 11:42:45;;;;;;;57.05;43.70;;;9.50;99.90;;;;;;4989137;28;20287;-70
2023/02/20 11:45:15;;;;;;;52.22;41.35;;;9.70;99.90;;;;;;4985807;28;20747;-70
2023/02/20 11:47:43;;;;;;;54.55;43.67;;;10.00;99.90;;;;;;4989396;28;20324;-70
2023/02/20 11:50:13;;;;;;;56.63;45.45;;;10.20;99.90;;;;;;4989379;28;20649;-69
2023/02/20 11:52:57;;;;;;;57.25;44.30;;;10.40;99.90;;;;;;4988372;28;20229;-69
2023/02/20 11:55:28;;;;;;;53.65;41.80;;;10.40;99.90;;;;;;4982799;28;20216;-71
2023/02/20 11:57:55;;;;;;;48.60;38.65;;;10.30;99.90;;;;;;4983981;28;20273;-71
2023/02/20 12:00:25;;;;;;;52.92;42.17;;;10.30;99.90;;;;;;4983262;28;20300;-70
2023/02/20 12:02:57;;;;;;;54.45;40.47;;;10.40;99.90;;;;;;4983587;28;20312;-71
2023/02/20 12:05:37;;;;;;;51.22;39.38;;;10.40;99.90;;;;;;4986320;28;20284;-71
2023/02/20 12:08:23;;;;;;;48.45;36.88;;;10.50;99.90;;;;;;4984881;28;20324;-70
2023/02/20 12:10:54;;;;;;;45.67;35.90;;;10.50;99.90;;;;;;4985172;28;20283;-69
2023/02/20 12:13:22;;;;;;;51.88;38.47;;;10.50;99.90;;;;;;4985926;28;20299;-71
2023/02/20 12:15:54;;;;;;;46.00;35.83;;;10.60;99.90;;;;;;4986765;28;20240;-69
2023/02/20 12:18:50;;;;;;;49.50;38.67;;;10.80;99.90;;;;;;4986174;28;20335;-70
2023/02/20 12:21:33;;;;;;;51.92;41.05;;;10.90;99.90;;;;;;4986138;28;20287;-71
2023/02/20 12:24:27;;;;;;;49.10;38.08;;;10.90;99.90;;;;;;4984922;28;20245;-71
2023/02/20 12:26:58;;;;;;;53.30;40.58;;;11.40;99.90;;;;;;4967699;28;20311;-71
2023/02/20 12:29:38;;;;;;;48.75;37.75;;;11.70;99.90;;;;;;4987130;28;20339;-71
2023/02/20 12:32:20;;;;;;;41.38;34.40;;;12.00;99.90;;;;;;4985190;28;20300;-67
2023/02/20 12:35:01;;;;;;;43.33;34.78;;;12.10;99.90;;;;;;4984762;28;20319;-69
2023/02/20 12:37:39;;;;;;;43.65;35.05;;;12.20;99.90;;;;;;4983202;28;20300;-69
2023/02/20 12:40:26;;;;;;;44.67;35.42;;;12.30;99.90;;;;;;4985046;28;20316;-67
2023/02/20 12:43:04;;;;;;;44.95;35.17;;;12.50;99.90;;;;;;4966213;28;20233;-69
2023/02/20 12:45:38;;;;;;;53.38;41.67;;;12.70;99.90;;;;;;4982588;28;20738;-69
2023/02/20 12:48:18;;;;;;;50.42;41.08;;;12.80;99.90;;;;;;4984045;28;20312;-69
2023/02/20 12:51:00;;;;;;;50.42;37.28;;;13.00;99.90;;;;;;4985495;28;20224;-69
2023/02/20 12:53:53;;;;;;;52.92;41.70;;;13.10;99.90;;;;;;4984332;28;20300;-68
2023/02/20 12:56:33;;;;;;;45.95;35.90;;;13.10;99.90;;;;;;4984981;28;20280;-69
2023/02/20 12:59:08;;;;;;;53.08;41.20;;;13.10;99.90;;;;;;4985420;28;20220;-69
2023/02/20 13:01:36;;;;;;;48.20;38.95;;;13.20;99.90;;;;;;4993189;28;20217;-69
2023/02/20 13:04:11;;;;;;;55.45;41.13;;;13.40;99.90;;;;;;4984224;28;20275;-71
2023/02/20 13:06:43;;;;;;;53.70;41.60;;;13.40;99.90;;;;;;4982245;28;20938;-69
2023/02/20 13:09:20;;;;;;;54.05;40.55;;;13.50;99.90;;;;;;4984352;28;20662;-70